YXGP weather

Grafton Hospital Helipad
Grafton, New South Wales, Australia

Public forecast

Using degrees Celsius for public forecast. Weather courtesy of forecast.io.

METAR (pilot weather report)

Closest report is Grafton Airport, 6.9 nm (12.9 km) SE. Retrieved 2019/04/19 04:00 UTC (10 minutes ago):

YGFN 190400Z AUTO 15008KT 9999 // SCT014 SCT032 SCT045 21/19 Q1023

TAF (pilot weather forecast)

Forecast is more than 12 hours old.

Closest forecast is Gold Coast Airport, 95.3 nm (176.6 km) NNE. Retrieved 2019/04/18 00:00 UTC (1 day ago):

TAF YBCG 182309Z 1900/1924 14014KT 9999 -SHRA FEW015 SCT025 BKN040 FM191200 19010KT 9999 -SHRA SCT015 BKN025 INTER 1900/1924 3000 SHRA BKN012